Time;durP1;ratioP1;P1;durP2;ratioP2;P2;SDS_P1;SDS_P2;PMS_P1;PMS_P2;Temp;Humidity;BMP_temperature;BMP_pressure;BME280_temperature;BME280_humidity;BME280_pressure;Samples;Min_cycle;Max_cycle;Signal;HPM_P1;HPM_P2
2024/01/29 00:00:16;;;;;;;8.60;5.43;;;;;;;;;;5012533;28;20040;-87
2024/01/29 00:03:01;;;;;;;9.38;5.75;;;;;;;;;;5029718;28;20031;-85
2024/01/29 00:05:47;;;;;;;9.65;5.07;;;;;;;;;;5044889;28;20021;-86
2024/01/29 00:08:32;;;;;;;8.35;5.50;;;;;;;;;;5042393;28;20517;-86
2024/01/29 00:11:17;;;;;;;9.60;5.10;;;;;;;;;;5028019;28;20076;-87
2024/01/29 00:14:02;;;;;;;9.73;4.93;;;;;;;;;;5032130;28;20091;-87
2024/01/29 00:16:48;;;;;;;8.93;4.90;;;;;;;;;;5017577;28;20446;-87
2024/01/29 00:19:33;;;;;;;9.38;5.32;;;;;;;;;;5012031;28;20029;-87
2024/01/29 00:22:18;;;;;;;9.57;5.13;;;;;;;;;;5030062;28;20033;-86
2024/01/29 00:25:04;;;;;;;9.27;4.80;;;;;;;;;;5050181;28;20036;-86
2024/01/29 00:27:49;;;;;;;6.70;4.95;;;;;;;;;;5023242;28;20129;-86
2024/01/29 00:30:34;;;;;;;10.52;5.32;;;;;;;;;;5041965;28;20565;-86
2024/01/29 00:33:20;;;;;;;10.00;4.70;;;;;;;;;;5037857;28;20133;-86
2024/01/29 00:36:05;;;;;;;9.05;5.03;;;;;;;;;;5027996;28;20055;-86
2024/01/29 00:38:50;;;;;;;8.85;5.05;;;;;;;;;;5027476;28;20025;-85
2024/01/29 00:41:36;;;;;;;8.00;4.57;;;;;;;;;;5038550;28;20029;-86
2024/01/29 00:44:21;;;;;;;7.82;4.45;;;;;;;;;;5031796;28;20025;-86
2024/01/29 00:47:06;;;;;;;9.63;4.15;;;;;;;;;;5043942;28;20051;-86
2024/01/29 00:49:52;;;;;;;8.65;4.40;;;;;;;;;;5042169;28;20040;-86
2024/01/29 00:52:37;;;;;;;9.85;4.93;;;;;;;;;;5022564;28;20057;-86
2024/01/29 00:55:22;;;;;;;8.50;4.75;;;;;;;;;;5024239;28;20127;-86
2024/01/29 00:58:07;;;;;;;7.85;4.60;;;;;;;;;;5031898;28;20506;-86
2024/01/29 01:00:52;;;;;;;8.43;4.32;;;;;;;;;;5026729;28;20369;-84
2024/01/29 01:03:38;;;;;;;8.38;4.30;;;;;;;;;;5011098;28;20052;-83
2024/01/29 01:06:23;;;;;;;9.43;4.40;;;;;;;;;;5028067;28;20032;-86
2024/01/29 01:09:09;;;;;;;9.38;4.65;;;;;;;;;;5043669;28;20076;-86
2024/01/29 01:11:54;;;;;;;8.90;4.10;;;;;;;;;;5027609;28;20063;-85
2024/01/29 01:14:39;;;;;;;11.23;4.35;;;;;;;;;;5042212;28;20032;-86
2024/01/29 01:17:24;;;;;;;7.35;4.18;;;;;;;;;;5015133;28;20057;-86
2024/01/29 01:20:10;;;;;;;9.60;4.32;;;;;;;;;;5022009;28;20071;-85
2024/01/29 01:22:56;;;;;;;9.38;3.90;;;;;;;;;;5012038;28;20604;-85
2024/01/29 01:25:41;;;;;;;7.22;4.25;;;;;;;;;;5017054;28;20048;-83
2024/01/29 01:28:26;;;;;;;12.07;4.95;;;;;;;;;;5019702;28;20112;-84
2024/01/29 01:31:11;;;;;;;7.38;3.85;;;;;;;;;;5018759;28;20083;-85
2024/01/29 01:33:57;;;;;;;7.22;4.55;;;;;;;;;;5014763;28;20042;-84
2024/01/29 01:36:42;;;;;;;14.45;4.30;;;;;;;;;;5025936;28;20033;-86
2024/01/29 01:39:27;;;;;;;8.57;4.18;;;;;;;;;;5029664;28;20135;-84
2024/01/29 01:42:13;;;;;;;9.75;4.70;;;;;;;;;;5025683;28;20039;-85
2024/01/29 01:44:58;;;;;;;9.45;4.22;;;;;;;;;;5017621;28;20038;-84
2024/01/29 01:47:43;;;;;;;9.40;4.72;;;;;;;;;;5034439;28;20429;-84
2024/01/29 01:50:28;;;;;;;8.02;4.05;;;;;;;;;;5034262;28;20032;-84
2024/01/29 01:53:13;;;;;;;7.25;3.78;;;;;;;;;;5015979;28;20091;-84
2024/01/29 01:55:59;;;;;;;5.00;3.42;;;;;;;;;;5024339;28;20035;-84
2024/01/29 01:58:45;;;;;;;6.57;3.85;;;;;;;;;;5032515;28;20412;-83
2024/01/29 02:01:30;;;;;;;6.10;3.55;;;;;;;;;;5030691;28;20521;-84
2024/01/29 02:04:16;;;;;;;7.43;4.00;;;;;;;;;;5045874;28;20038;-84
2024/01/29 02:07:01;;;;;;;9.50;4.53;;;;;;;;;;5025040;28;20106;-84
2024/01/29 02:09:47;;;;;;;6.75;3.63;;;;;;;;;;5034151;28;20040;-83
2024/01/29 02:12:32;;;;;;;8.45;4.05;;;;;;;;;;5031946;28;20033;-81
2024/01/29 02:15:17;;;;;;;7.47;3.67;;;;;;;;;;5018936;28;20112;-84
2024/01/29 02:18:03;;;;;;;9.13;4.03;;;;;;;;;;5034407;28;20021;-82
2024/01/29 02:20:49;;;;;;;7.95;4.30;;;;;;;;;;5034156;28;20025;-82
2024/01/29 02:23:34;;;;;;;6.45;3.28;;;;;;;;;;5014519;28;20489;-83
2024/01/29 02:26:19;;;;;;;11.20;3.95;;;;;;;;;;5051967;28;20041;-82
2024/01/29 02:29:04;;;;;;;8.60;3.85;;;;;;;;;;5043153;28;20066;-83
2024/01/29 02:31:50;;;;;;;6.30;3.33;;;;;;;;;;5031039;28;20027;-84
2024/01/29 02:34:35;;;;;;;8.55;3.72;;;;;;;;;;5015493;28;20048;-84
2024/01/29 02:37:20;;;;;;;6.47;3.53;;;;;;;;;;5038535;28;20468;-85
2024/01/29 02:40:06;;;;;;;7.32;3.55;;;;;;;;;;5031544;28;20120;-85
2024/01/29 02:42:51;;;;;;;8.27;4.22;;;;;;;;;;5042625;28;20025;-83
2024/01/29 02:45:36;;;;;;;7.13;3.67;;;;;;;;;;5027079;28;20021;-85
2024/01/29 02:48:21;;;;;;;7.65;3.75;;;;;;;;;;5032526;28;20051;-84
2024/01/29 02:51:06;;;;;;;6.00;3.33;;;;;;;;;;5032598;28;20025;-86
2024/01/29 02:53:51;;;;;;;6.55;3.30;;;;;;;;;;5033167;28;20029;-83
2024/01/29 02:56:37;;;;;;;6.38;3.08;;;;;;;;;;5038399;28;20020;-84
2024/01/29 02:59:22;;;;;;;8.02;3.60;;;;;;;;;;5044751;28;20054;-86
2024/01/29 03:02:07;;;;;;;7.93;3.78;;;;;;;;;;5047348;28;20400;-86
2024/01/29 03:04:52;;;;;;;6.22;4.13;;;;;;;;;;5036897;28;20036;-85
2024/01/29 03:07:37;;;;;;;5.65;3.28;;;;;;;;;;5033667;28;20043;-85
2024/01/29 03:10:23;;;;;;;6.40;3.17;;;;;;;;;;5020530;28;20035;-84
2024/01/29 03:13:08;;;;;;;6.20;3.40;;;;;;;;;;5028607;28;20021;-85
2024/01/29 03:15:53;;;;;;;5.47;3.08;;;;;;;;;;5039322;28;20090;-86
2024/01/29 03:18:38;;;;;;;6.95;3.33;;;;;;;;;;5034271;28;20021;-86
2024/01/29 03:21:25;;;;;;;7.70;3.55;;;;;;;;;;5025730;28;20527;-86
2024/01/29 03:24:11;;;;;;;8.20;3.90;;;;;;;;;;5016019;28;20041;-85
2024/01/29 03:26:56;;;;;;;7.47;3.60;;;;;;;;;;5034914;28;20081;-83
2024/01/29 03:29:41;;;;;;;8.80;3.65;;;;;;;;;;5049114;28;20021;-84
2024/01/29 03:32:26;;;;;;;7.90;3.13;;;;;;;;;;5026134;28;20111;-82
2024/01/29 03:35:12;;;;;;;7.43;3.55;;;;;;;;;;5033981;28;20506;-84
2024/01/29 03:37:57;;;;;;;5.70;3.33;;;;;;;;;;5034242;28;20033;-85
2024/01/29 03:40:42;;;;;;;5.30;3.10;;;;;;;;;;5046132;28;20562;-85
2024/01/29 03:43:27;;;;;;;9.73;3.67;;;;;;;;;;5025096;28;20048;-86
2024/01/29 03:46:13;;;;;;;7.68;4.00;;;;;;;;;;5036090;28;20025;-86
2024/01/29 03:48:58;;;;;;;6.25;3.22;;;;;;;;;;5015388;28;20025;-85
2024/01/29 03:51:43;;;;;;;8.27;4.18;;;;;;;;;;5017126;28;20037;-84
2024/01/29 03:54:28;;;;;;;6.10;3.47;;;;;;;;;;5041284;28;20032;-84
2024/01/29 03:57:14;;;;;;;6.93;3.25;;;;;;;;;;5040019;28;20021;-84
2024/01/29 03:59:59;;;;;;;7.22;3.60;;;;;;;;;;5015122;28;20025;-85
2024/01/29 04:02:49;;;;;;;5.45;3.00;;;;;;;;;;5019589;28;20031;-85
2024/01/29 04:05:34;;;;;;;7.60;3.58;;;;;;;;;;5032736;28;20087;-84
2024/01/29 04:08:21;;;;;;;5.32;3.20;;;;;;;;;;5030992;28;20024;-85
2024/01/29 04:11:06;;;;;;;4.93;2.97;;;;;;;;;;5031540;28;20063;-85
2024/01/29 04:13:51;;;;;;;4.75;3.30;;;;;;;;;;5016656;28;20040;-85
2024/01/29 04:16:37;;;;;;;5.72;3.53;;;;;;;;;;5047742;28;20028;-85
2024/01/29 04:19:22;;;;;;;7.15;3.25;;;;;;;;;;5013552;28;20018;-86
2024/01/29 04:22:07;;;;;;;5.45;3.55;;;;;;;;;;5011874;28;20025;-85
2024/01/29 04:24:53;;;;;;;5.70;2.85;;;;;;;;;;5011487;28;20021;-85
2024/01/29 04:27:38;;;;;;;6.40;3.22;;;;;;;;;;5028871;28;20458;-85
2024/01/29 04:30:23;;;;;;;7.50;3.88;;;;;;;;;;5011929;28;20037;-84
2024/01/29 04:33:08;;;;;;;12.38;3.83;;;;;;;;;;5029656;28;20128;-86
2024/01/29 04:35:54;;;;;;;7.40;4.07;;;;;;;;;;5033272;28;20044;-86
2024/01/29 04:38:39;;;;;;;6.53;3.30;;;;;;;;;;5017081;28;20029;-83
2024/01/29 04:41:25;;;;;;;7.90;3.67;;;;;;;;;;5030696;28;20024;-85
2024/01/29 04:44:11;;;;;;;8.45;2.90;;;;;;;;;;5030484;28;20036;-86
2024/01/29 04:46:57;;;;;;;5.13;2.85;;;;;;;;;;5031141;28;20068;-86
2024/01/29 04:49:43;;;;;;;6.10;3.13;;;;;;;;;;5031724;28;20506;-84
2024/01/29 04:52:28;;;;;;;6.05;3.65;;;;;;;;;;5033867;28;20064;-85
2024/01/29 04:55:13;;;;;;;7.13;3.28;;;;;;;;;;5031426;28;20032;-84
2024/01/29 04:57:59;;;;;;;4.10;2.45;;;;;;;;;;5030780;28;20405;-83
2024/01/29 05:00:44;;;;;;;6.70;3.13;;;;;;;;;;5020574;28;20123;-83
2024/01/29 05:03:30;;;;;;;5.03;3.42;;;;;;;;;;5023288;28;20071;-85
2024/01/29 05:06:15;;;;;;;5.63;2.95;;;;;;;;;;5032428;28;20376;-84
2024/01/29 05:09:00;;;;;;;5.82;2.72;;;;;;;;;;5033052;28;20033;-85
2024/01/29 05:11:46;;;;;;;6.93;4.00;;;;;;;;;;5033201;28;20037;-84
2024/01/29 05:14:31;;;;;;;5.70;2.63;;;;;;;;;;5046249;28;20029;-85
2024/01/29 05:17:16;;;;;;;5.13;2.95;;;;;;;;;;5019558;28;20037;-85
2024/01/29 05:20:02;;;;;;;5.03;2.65;;;;;;;;;;5015498;28;20025;-84
2024/01/29 05:22:47;;;;;;;3.95;2.60;;;;;;;;;;5029315;28;20026;-84
2024/01/29 05:25:32;;;;;;;4.47;2.95;;;;;;;;;;5035687;28;20029;-85
2024/01/29 05:28:18;;;;;;;8.45;2.75;;;;;;;;;;5030222;28;20029;-83
2024/01/29 05:31:03;;;;;;;5.80;2.90;;;;;;;;;;5035102;28;20099;-85
2024/01/29 05:33:48;;;;;;;5.93;3.00;;;;;;;;;;5020986;28;20124;-84
2024/01/29 05:36:34;;;;;;;7.78;3.40;;;;;;;;;;5017040;28;20364;-85
2024/01/29 05:39:19;;;;;;;7.32;3.63;;;;;;;;;;5034894;28;20079;-85
2024/01/29 05:42:05;;;;;;;8.20;3.50;;;;;;;;;;5039960;28;20025;-84
2024/01/29 05:44:50;;;;;;;5.38;3.30;;;;;;;;;;5032481;28;20031;-85
2024/01/29 05:47:35;;;;;;;8.38;3.88;;;;;;;;;;5033762;28;20376;-85
2024/01/29 05:50:21;;;;;;;8.27;4.15;;;;;;;;;;5047835;28;20077;-81
2024/01/29 05:53:07;;;;;;;6.50;3.42;;;;;;;;;;5033052;28;20025;-81
2024/01/29 05:55:52;;;;;;;5.45;2.65;;;;;;;;;;5015446;28;20032;-82
2024/01/29 05:58:37;;;;;;;5.25;3.00;;;;;;;;;;5015765;28;20111;-81
2024/01/29 06:01:23;;;;;;;5.38;3.33;;;;;;;;;;5028555;28;20115;-82
2024/01/29 06:04:08;;;;;;;9.68;3.60;;;;;;;;;;5033125;28;20459;-82
2024/01/29 06:06:53;;;;;;;8.30;3.97;;;;;;;;;;5034533;28;20032;-84
2024/01/29 06:09:39;;;;;;;6.43;3.42;;;;;;;;;;5032668;28;20056;-83
2024/01/29 06:12:24;;;;;;;7.00;3.40;;;;;;;;;;5001299;28;20106;-84
2024/01/29 06:15:09;;;;;;;8.05;3.55;;;;;;;;;;5039228;28;20047;-85
2024/01/29 06:17:54;;;;;;;5.68;3.38;;;;;;;;;;5030904;28;20025;-85
2024/01/29 06:20:39;;;;;;;6.95;3.55;;;;;;;;;;5030339;28;20080;-86
2024/01/29 06:23:26;;;;;;;8.38;4.10;;;;;;;;;;5038656;28;20062;-82
2024/01/29 06:26:12;;;;;;;9.55;4.88;;;;;;;;;;5031988;28;20080;-83
2024/01/29 06:29:00;;;;;;;8.40;4.80;;;;;;;;;;5031305;28;20024;-79
2024/01/29 06:31:49;;;;;;;8.07;4.90;;;;;;;;;;5030426;28;20031;-79
2024/01/29 06:34:35;;;;;;;11.55;4.50;;;;;;;;;;5041034;28;20044;-79
2024/01/29 06:37:20;;;;;;;12.25;6.38;;;;;;;;;;5043852;28;20028;-80
2024/01/29 06:40:06;;;;;;;10.82;5.68;;;;;;;;;;5039392;28;20020;-79
2024/01/29 06:42:52;;;;;;;9.25;5.32;;;;;;;;;;5011604;28;20056;-81
2024/01/29 06:45:37;;;;;;;11.85;5.28;;;;;;;;;;5013776;28;20025;-81
2024/01/29 06:48:22;;;;;;;13.73;5.82;;;;;;;;;;5046440;28;20089;-80
2024/01/29 06:51:08;;;;;;;8.98;5.18;;;;;;;;;;5014370;28;20022;-80
2024/01/29 06:53:53;;;;;;;11.27;5.72;;;;;;;;;;5014415;28;20503;-81
2024/01/29 06:56:38;;;;;;;13.82;6.43;;;;;;;;;;5032833;28;20029;-80
2024/01/29 06:59:25;;;;;;;10.20;5.63;;;;;;;;;;5026699;28;20022;-80
2024/01/29 07:02:11;;;;;;;12.15;5.47;;;;;;;;;;5013894;28;20057;-80
2024/01/29 07:04:56;;;;;;;10.30;6.25;;;;;;;;;;5022946;28;20025;-80
2024/01/29 07:07:41;;;;;;;13.65;6.35;;;;;;;;;;5027606;28;20029;-82
2024/01/29 07:10:27;;;;;;;11.30;6.18;;;;;;;;;;5018021;28;20032;-80
2024/01/29 07:13:12;;;;;;;15.52;6.32;;;;;;;;;;5012733;28;20041;-83
2024/01/29 07:15:59;;;;;;;15.45;7.18;;;;;;;;;;5031304;28;20036;-81
2024/01/29 07:18:44;;;;;;;11.18;5.40;;;;;;;;;;5026743;28;20018;-82
2024/01/29 07:21:29;;;;;;;11.65;5.80;;;;;;;;;;5027460;28;20029;-81
2024/01/29 07:24:15;;;;;;;12.30;6.47;;;;;;;;;;5027547;28;20056;-79
2024/01/29 07:27:00;;;;;;;11.80;6.38;;;;;;;;;;5025387;28;20032;-81
2024/01/29 07:29:45;;;;;;;17.77;7.28;;;;;;;;;;5028057;28;20030;-81
2024/01/29 07:32:33;;;;;;;16.60;7.22;;;;;;;;;;5021810;28;20087;-81
2024/01/29 07:35:19;;;;;;;15.45;5.95;;;;;;;;;;5058129;28;20029;-81
2024/01/29 07:38:05;;;;;;;15.15;6.65;;;;;;;;;;5045301;28;20029;-80
2024/01/29 07:40:51;;;;;;;12.00;6.47;;;;;;;;;;5032967;28;20041;-81
2024/01/29 07:43:36;;;;;;;13.05;6.82;;;;;;;;;;5032374;28;20143;-81
2024/01/29 07:46:21;;;;;;;19.40;6.68;;;;;;;;;;5053610;28;20037;-81
2024/01/29 07:49:07;;;;;;;17.77;6.57;;;;;;;;;;5049861;28;20089;-81
2024/01/29 07:51:53;;;;;;;13.02;6.97;;;;;;;;;;5051590;28;20029;-80
2024/01/29 07:54:39;;;;;;;16.02;7.35;;;;;;;;;;5046795;28;20063;-81
2024/01/29 07:57:24;;;;;;;12.75;6.75;;;;;;;;;;5041540;28;20029;-81
2024/01/29 08:00:10;;;;;;;10.10;6.07;;;;;;;;;;5042619;28;20040;-81
2024/01/29 08:02:55;;;;;;;15.35;7.18;;;;;;;;;;5031419;28;20066;-81
2024/01/29 08:05:40;;;;;;;12.27;6.63;;;;;;;;;;5037634;28;20037;-80
2024/01/29 08:08:26;;;;;;;19.45;9.32;;;;;;;;;;5043919;28;20094;-80
2024/01/29 08:11:11;;;;;;;15.68;8.38;;;;;;;;;;5034625;28;20047;-80
2024/01/29 08:13:56;;;;;;;17.83;8.70;;;;;;;;;;5031558;28;20032;-80
2024/01/29 08:16:41;;;;;;;15.35;8.85;;;;;;;;;;5045345;28;20029;-79
2024/01/29 08:19:27;;;;;;;15.65;9.10;;;;;;;;;;5030948;28;20074;-80
2024/01/29 08:22:13;;;;;;;15.70;7.68;;;;;;;;;;5031611;28;20024;-82
2024/01/29 08:24:59;;;;;;;16.40;7.53;;;;;;;;;;5036505;28;20086;-81
2024/01/29 08:27:44;;;;;;;21.67;8.52;;;;;;;;;;5051063;28;20090;-81
2024/01/29 08:30:29;;;;;;;14.95;8.23;;;;;;;;;;5051026;28;20465;-81
2024/01/29 08:33:14;;;;;;;15.60;8.38;;;;;;;;;;5050275;28;20084;-82
2024/01/29 08:35:59;;;;;;;18.40;9.15;;;;;;;;;;5050617;28;20086;-83
2024/01/29 08:38:45;;;;;;;16.70;9.52;;;;;;;;;;5051042;28;20090;-81
2024/01/29 08:41:30;;;;;;;15.25;8.10;;;;;;;;;;5041199;28;20056;-81
2024/01/29 08:44:15;;;;;;;19.40;9.60;;;;;;;;;;5031887;28;20029;-81
2024/01/29 08:47:00;;;;;;;13.10;8.00;;;;;;;;;;5031067;28;20036;-81
2024/01/29 08:49:46;;;;;;;15.38;7.60;;;;;;;;;;5047470;28;20024;-81
2024/01/29 08:52:31;;;;;;;15.38;7.63;;;;;;;;;;5049994;28;20063;-81
2024/01/29 08:55:16;;;;;;;13.95;8.50;;;;;;;;;;5049815;28;20063;-81
2024/01/29 08:58:01;;;;;;;14.27;7.18;;;;;;;;;;5049701;28;20404;-81
2024/01/29 09:00:49;;;;;;;15.82;7.93;;;;;;;;;;5039860;28;20043;-81
2024/01/29 09:03:34;;;;;;;10.23;6.78;;;;;;;;;;5030976;28;20075;-81
2024/01/29 09:06:19;;;;;;;13.05;7.28;;;;;;;;;;5045134;28;20043;-81
2024/01/29 09:09:04;;;;;;;13.15;7.35;;;;;;;;;;5030093;28;20036;-82
2024/01/29 09:11:51;;;;;;;15.82;8.63;;;;;;;;;;5037808;28;20036;-80
2024/01/29 09:14:36;;;;;;;13.10;7.32;;;;;;;;;;5050397;28;20036;-80
2024/01/29 09:17:21;;;;;;;13.63;7.85;;;;;;;;;;5042653;28;20028;-80
2024/01/29 09:20:08;;;;;;;16.15;6.53;;;;;;;;;;5050143;28;20663;-81
2024/01/29 09:22:53;;;;;;;12.68;6.30;;;;;;;;;;5050884;28;20040;-80
2024/01/29 09:25:38;;;;;;;15.50;6.78;;;;;;;;;;5049969;28;20470;-80
2024/01/29 09:28:23;;;;;;;14.25;6.93;;;;;;;;;;5032879;28;20040;-80
2024/01/29 09:31:09;;;;;;;16.58;8.10;;;;;;;;;;5042014;28;20044;-80
2024/01/29 09:33:54;;;;;;;15.52;7.88;;;;;;;;;;5050225;28;20052;-80
2024/01/29 09:36:40;;;;;;;15.88;8.93;;;;;;;;;;5037038;28;20025;-81
2024/01/29 09:39:25;;;;;;;14.98;7.47;;;;;;;;;;5029741;28;20112;-82
2024/01/29 09:42:14;;;;;;;20.13;8.75;;;;;;;;;;5048487;28;20024;-81
2024/01/29 09:45:00;;;;;;;12.93;7.32;;;;;;;;;;5050085;28;20025;-81
2024/01/29 09:47:46;;;;;;;13.60;7.32;;;;;;;;;;5050348;28;20024;-82
2024/01/29 09:50:31;;;;;;;13.70;7.70;;;;;;;;;;5038859;28;20064;-81
2024/01/29 09:53:19;;;;;;;13.32;6.72;;;;;;;;;;5044512;28;20193;-82
2024/01/29 09:56:05;;;;;;;12.63;6.22;;;;;;;;;;5053215;28;20035;-81
2024/01/29 09:58:50;;;;;;;12.13;7.13;;;;;;;;;;5052766;28;20032;-81
2024/01/29 10:01:36;;;;;;;10.63;6.20;;;;;;;;;;5040227;28;20033;-81
2024/01/29 10:04:21;;;;;;;10.10;5.70;;;;;;;;;;5047406;28;20024;-81
2024/01/29 10:07:07;;;;;;;8.82;5.28;;;;;;;;;;5046807;28;20025;-82
2024/01/29 10:09:53;;;;;;;10.88;5.70;;;;;;;;;;5033515;28;20036;-81
2024/01/29 10:12:38;;;;;;;13.20;6.10;;;;;;;;;;5040513;28;20048;-80
2024/01/29 10:15:23;;;;;;;13.20;6.00;;;;;;;;;;5053312;28;20101;-81
2024/01/29 10:18:13;;;;;;;9.73;5.68;;;;;;;;;;5053486;28;20077;-80
2024/01/29 10:20:59;;;;;;;13.52;6.90;;;;;;;;;;5052994;28;20028;-81
2024/01/29 10:23:53;;;;;;;10.27;6.18;;;;;;;;;;5040263;28;20039;-80
2024/01/29 10:26:38;;;;;;;13.65;6.15;;;;;;;;;;5046262;28;20032;-80
2024/01/29 10:29:24;;;;;;;11.75;6.03;;;;;;;;;;5053307;28;20112;-80
2024/01/29 10:32:09;;;;;;;11.43;6.88;;;;;;;;;;5052513;28;20040;-80
2024/01/29 10:34:55;;;;;;;13.73;5.88;;;;;;;;;;5052300;28;20309;-80
2024/01/29 10:37:42;;;;;;;12.27;7.00;;;;;;;;;;5043140;28;20031;-81
2024/01/29 10:40:28;;;;;;;12.20;6.82;;;;;;;;;;5048595;28;20021;-80
2024/01/29 10:43:18;;;;;;;15.15;7.07;;;;;;;;;;5052305;28;20086;-81
2024/01/29 10:46:05;;;;;;;14.30;7.70;;;;;;;;;;5053172;28;20668;-80
2024/01/29 10:48:53;;;;;;;13.82;8.10;;;;;;;;;;5051389;28;20249;-82
2024/01/29 10:51:40;;;;;;;17.95;7.95;;;;;;;;;;5047286;28;20027;-82
2024/01/29 10:54:26;;;;;;;12.90;8.40;;;;;;;;;;5052379;28;20070;-82
2024/01/29 10:57:12;;;;;;;13.18;7.13;;;;;;;;;;5051287;28;20043;-83
2024/01/29 10:59:58;;;;;;;11.90;7.38;;;;;;;;;;5032911;28;20028;-82
2024/01/29 11:02:43;;;;;;;16.70;7.85;;;;;;;;;;5051592;28;20032;-82
2024/01/29 11:05:29;;;;;;;13.88;7.05;;;;;;;;;;5051935;28;20169;-80
2024/01/29 11:08:19;;;;;;;10.02;6.35;;;;;;;;;;5051690;28;20033;-82
2024/01/29 11:11:04;;;;;;;14.68;7.85;;;;;;;;;;5052552;28;20490;-82
2024/01/29 11:13:49;;;;;;;13.35;6.30;;;;;;;;;;5051557;28;20032;-82
2024/01/29 11:16:35;;;;;;;11.65;6.90;;;;;;;;;;5052427;28;20091;-83
2024/01/29 11:19:21;;;;;;;11.90;7.75;;;;;;;;;;5052583;28;20035;-82
2024/01/29 11:22:08;;;;;;;14.38;7.20;;;;;;;;;;5051356;28;20025;-82
2024/01/29 11:24:54;;;;;;;16.38;7.53;;;;;;;;;;5032406;28;20368;-82
2024/01/29 11:27:40;;;;;;;15.88;7.47;;;;;;;;;;5050194;28;20045;-80
2024/01/29 11:30:26;;;;;;;12.85;7.38;;;;;;;;;;5052127;28;20036;-81
2024/01/29 11:33:16;;;;;;;13.27;7.13;;;;;;;;;;5060274;28;20059;-82
2024/01/29 11:36:14;;;;;;;16.67;7.82;;;;;;;;;;5054680;28;20086;-81
2024/01/29 11:39:07;;;;;;;14.23;7.15;;;;;;;;;;5045903;28;20028;-81
2024/01/29 11:41:53;;;;;;;13.45;7.78;;;;;;;;;;5042090;28;20032;-81
2024/01/29 11:44:40;;;;;;;12.38;8.23;;;;;;;;;;5032620;28;20563;-82
2024/01/29 11:47:25;;;;;;;12.57;7.57;;;;;;;;;;5045459;28;20436;-81
2024/01/29 11:50:10;;;;;;;13.15;7.10;;;;;;;;;;5051887;28;20017;-81
2024/01/29 11:52:56;;;;;;;14.00;7.65;;;;;;;;;;5046041;28;20025;-81
2024/01/29 11:55:42;;;;;;;10.70;7.43;;;;;;;;;;5050430;28;20107;-81
2024/01/29 11:58:27;;;;;;;13.43;7.25;;;;;;;;;;5043746;28;20025;-81
2024/01/29 12:01:12;;;;;;;17.52;8.68;;;;;;;;;;5034661;28;20029;-81
2024/01/29 12:03:58;;;;;;;12.40;7.85;;;;;;;;;;5051345;28;20471;-82
2024/01/29 12:06:43;;;;;;;14.68;8.48;;;;;;;;;;5044679;28;20025;-82
2024/01/29 12:09:30;;;;;;;12.48;7.82;;;;;;;;;;5051873;28;20043;-83
2024/01/29 12:12:16;;;;;;;19.38;8.75;;;;;;;;;;5050345;28;20098;-82
2024/01/29 12:15:01;;;;;;;12.98;8.00;;;;;;;;;;5050971;28;20105;-82
2024/01/29 12:17:48;;;;;;;15.07;7.65;;;;;;;;;;5036914;28;20020;-82
2024/01/29 12:20:34;;;;;;;15.10;8.02;;;;;;;;;;5058037;28;20117;-83
2024/01/29 12:23:23;;;;;;;13.90;7.50;;;;;;;;;;5050645;28;20028;-82
2024/01/29 12:26:08;;;;;;;11.70;7.18;;;;;;;;;;5050988;28;20024;-83
2024/01/29 12:28:54;;;;;;;12.80;7.15;;;;;;;;;;5051186;28;20025;-82
2024/01/29 12:31:39;;;;;;;12.82;7.63;;;;;;;;;;5050634;28;20106;-82
2024/01/29 12:34:24;;;;;;;12.55;6.55;;;;;;;;;;5051342;28;20124;-82
2024/01/29 12:37:17;;;;;;;12.77;8.32;;;;;;;;;;5044680;28;20558;-81
2024/01/29 12:40:03;;;;;;;14.20;8.27;;;;;;;;;;5031682;28;20013;-82
2024/01/29 12:42:58;;;;;;;13.25;7.47;;;;;;;;;;5043942;28;20035;-82
2024/01/29 12:45:45;;;;;;;15.90;7.93;;;;;;;;;;5050533;28;20027;-81
2024/01/29 12:48:30;;;;;;;13.13;8.13;;;;;;;;;;5050814;28;20044;-81
2024/01/29 12:51:15;;;;;;;14.85;7.70;;;;;;;;;;5035414;28;20027;-81
2024/01/29 12:54:01;;;;;;;15.13;8.07;;;;;;;;;;5050506;28;20024;-81
2024/01/29 12:56:46;;;;;;;11.15;6.93;;;;;;;;;;5046107;28;20025;-81
2024/01/29 12:59:31;;;;;;;11.73;7.30;;;;;;;;;;5050851;28;20031;-81
2024/01/29 13:02:16;;;;;;;14.10;7.22;;;;;;;;;;5050567;28;20032;-81
2024/01/29 13:05:02;;;;;;;19.10;7.40;;;;;;;;;;5050767;28;20110;-81
2024/01/29 13:07:47;;;;;;;15.05;8.32;;;;;;;;;;5046368;28;20419;-81
2024/01/29 13:10:32;;;;;;;14.40;8.10;;;;;;;;;;5044303;28;20028;-81
2024/01/29 13:13:18;;;;;;;13.15;7.97;;;;;;;;;;5046524;28;20028;-80
2024/01/29 13:16:03;;;;;;;15.02;8.80;;;;;;;;;;5031897;28;20068;-81
2024/01/29 13:18:48;;;;;;;14.88;8.65;;;;;;;;;;5030774;28;20025;-83
2024/01/29 13:21:34;;;;;;;9.70;6.97;;;;;;;;;;5032622;28;20037;-83
2024/01/29 13:24:19;;;;;;;13.80;7.05;;;;;;;;;;5030186;28;20021;-83
2024/01/29 13:27:05;;;;;;;17.27;8.50;;;;;;;;;;5031647;28;20099;-80
2024/01/29 13:29:50;;;;;;;14.10;8.10;;;;;;;;;;5048025;28;20110;-84
2024/01/29 13:32:36;;;;;;;13.75;7.85;;;;;;;;;;5057505;28;20113;-82
2024/01/29 13:35:21;;;;;;;13.95;7.65;;;;;;;;;;5054427;28;20048;-84
2024/01/29 13:38:06;;;;;;;13.18;7.30;;;;;;;;;;5053006;28;20033;-84
2024/01/29 13:40:52;;;;;;;12.77;7.57;;;;;;;;;;5048889;28;20075;-82
2024/01/29 13:43:38;;;;;;;13.25;7.60;;;;;;;;;;5044479;28;20107;-82
2024/01/29 13:46:23;;;;;;;16.90;7.63;;;;;;;;;;5054397;28;20035;-83
2024/01/29 13:49:09;;;;;;;14.10;6.35;;;;;;;;;;5054415;28;20024;-82
2024/01/29 13:51:54;;;;;;;11.63;7.05;;;;;;;;;;5044971;28;20021;-82
2024/01/29 13:54:40;;;;;;;12.85;6.50;;;;;;;;;;5054050;28;20036;-82
2024/01/29 13:57:25;;;;;;;12.80;6.35;;;;;;;;;;5053456;28;20459;-82
2024/01/29 14:00:13;;;;;;;12.23;6.55;;;;;;;;;;5033907;28;20029;-81
2024/01/29 14:02:59;;;;;;;12.05;6.35;;;;;;;;;;5045183;28;20020;-81
2024/01/29 14:05:44;;;;;;;13.90;6.15;;;;;;;;;;5034979;28;20115;-81
2024/01/29 14:08:30;;;;;;;10.40;5.18;;;;;;;;;;5044943;28;20053;-81
2024/01/29 14:11:15;;;;;;;12.55;7.05;;;;;;;;;;5033849;28;20552;-81
2024/01/29 14:14:01;;;;;;;12.52;6.88;;;;;;;;;;5051850;28;20102;-81
2024/01/29 14:16:47;;;;;;;12.95;6.28;;;;;;;;;;5039058;28;20068;-81
2024/01/29 14:19:32;;;;;;;12.10;5.97;;;;;;;;;;5033990;28;20025;-81
2024/01/29 14:22:20;;;;;;;13.32;5.95;;;;;;;;;;5040107;28;20021;-81
2024/01/29 14:25:05;;;;;;;8.75;5.25;;;;;;;;;;5034428;28;20391;-80
2024/01/29 14:27:52;;;;;;;9.80;5.60;;;;;;;;;;5041504;28;20028;-80
2024/01/29 14:30:37;;;;;;;12.43;5.72;;;;;;;;;;5033740;28;20036;-81
2024/01/29 14:33:22;;;;;;;9.38;5.75;;;;;;;;;;5045665;28;20041;-81
2024/01/29 14:36:08;;;;;;;11.30;5.45;;;;;;;;;;5051668;28;20038;-82
2024/01/29 14:38:56;;;;;;;8.07;5.10;;;;;;;;;;5032144;28;20086;-83
2024/01/29 14:41:45;;;;;;;12.40;5.13;;;;;;;;;;5033242;28;20036;-81
2024/01/29 14:44:30;;;;;;;9.93;5.10;;;;;;;;;;5043959;28;20509;-82
2024/01/29 14:47:15;;;;;;;9.68;5.00;;;;;;;;;;5050062;28;20325;-84
2024/01/29 14:50:01;;;;;;;11.43;4.38;;;;;;;;;;5048706;28;20063;-83
2024/01/29 14:52:46;;;;;;;9.93;5.03;;;;;;;;;;5045713;28;20040;-81
2024/01/29 14:55:31;;;;;;;10.55;4.72;;;;;;;;;;5033151;28;20146;-83
2024/01/29 14:58:17;;;;;;;11.45;5.53;;;;;;;;;;5043456;28;20123;-82
2024/01/29 15:01:03;;;;;;;10.20;5.05;;;;;;;;;;5032809;28;20094;-83
2024/01/29 15:03:49;;;;;;;11.57;5.15;;;;;;;;;;5047235;28;20061;-82
2024/01/29 15:06:35;;;;;;;9.80;4.47;;;;;;;;;;5053304;28;20024;-82
2024/01/29 15:09:20;;;;;;;8.27;4.78;;;;;;;;;;5047935;28;20040;-82
2024/01/29 15:12:06;;;;;;;10.55;4.25;;;;;;;;;;5044853;28;20059;-83
2024/01/29 15:14:51;;;;;;;8.52;5.03;;;;;;;;;;5042888;28;20036;-82
2024/01/29 15:17:37;;;;;;;12.40;4.50;;;;;;;;;;5052576;28;20044;-82
2024/01/29 15:20:22;;;;;;;8.38;4.00;;;;;;;;;;5043475;28;20239;-81
2024/01/29 15:23:07;;;;;;;12.95;4.82;;;;;;;;;;5048091;28;20074;-82
2024/01/29 15:25:52;;;;;;;9.23;4.68;;;;;;;;;;5051917;28;20024;-81
2024/01/29 15:28:38;;;;;;;8.23;4.32;;;;;;;;;;5051574;28;20056;-81
2024/01/29 15:31:24;;;;;;;8.55;4.65;;;;;;;;;;5052316;28;20078;-82
2024/01/29 15:34:10;;;;;;;7.53;4.38;;;;;;;;;;5051301;28;20291;-82
2024/01/29 15:36:55;;;;;;;6.43;3.30;;;;;;;;;;5052098;28;20020;-81
2024/01/29 15:39:40;;;;;;;10.90;4.53;;;;;;;;;;5048085;28;20029;-79
2024/01/29 15:42:28;;;;;;;9.52;4.07;;;;;;;;;;5043881;28;20024;-81
2024/01/29 15:45:14;;;;;;;9.05;4.25;;;;;;;;;;5054139;28;20098;-81
2024/01/29 15:47:59;;;;;;;8.15;4.13;;;;;;;;;;5055416;28;20078;-84
2024/01/29 15:50:45;;;;;;;9.25;4.60;;;;;;;;;;5058058;28;20067;-83
2024/01/29 15:53:30;;;;;;;7.85;4.00;;;;;;;;;;5054205;28;20028;-82
2024/01/29 15:56:16;;;;;;;10.20;4.50;;;;;;;;;;5051632;28;20475;-81
2024/01/29 15:59:01;;;;;;;11.13;3.95;;;;;;;;;;5051341;28;20028;-82
2024/01/29 16:01:55;;;;;;;8.30;4.03;;;;;;;;;;5032469;28;20033;-83
2024/01/29 16:04:42;;;;;;;6.80;3.53;;;;;;;;;;5046690;28;20041;-83
2024/01/29 16:07:28;;;;;;;10.65;4.25;;;;;;;;;;5051455;28;20028;-82
2024/01/29 16:10:13;;;;;;;9.13;4.38;;;;;;;;;;5039897;28;20089;-81
2024/01/29 16:12:58;;;;;;;9.75;4.43;;;;;;;;;;5047745;28;20032;-83
2024/01/29 16:15:43;;;;;;;10.70;5.57;;;;;;;;;;5049807;28;20031;-82
2024/01/29 16:18:29;;;;;;;7.90;4.00;;;;;;;;;;5061994;28;20181;-80
2024/01/29 16:21:22;;;;;;;7.53;4.07;;;;;;;;;;5064994;28;20052;-82
2024/01/29 16:24:08;;;;;;;7.28;4.47;;;;;;;;;;5046667;28;20054;-80